createdAt,value
2022-08-17T00:00:43.956Z,22.21
2022-08-17T00:03:04.052Z,22.20
2022-08-17T00:05:34.763Z,22.19
2022-08-17T00:08:02.341Z,22.16
2022-08-17T00:10:29.652Z,22.14
2022-08-17T00:12:59.795Z,22.09
2022-08-17T00:15:27.097Z,22.12
2022-08-17T00:17:54.255Z,22.11
2022-08-17T00:20:23.394Z,22.04
2022-08-17T00:23:18.047Z,22.05
2022-08-17T00:25:46.993Z,22.01
2022-08-17T00:28:16.240Z,22.02
2022-08-17T00:30:50.883Z,22.01
2022-08-17T00:33:31.309Z,22.00
2022-08-17T00:35:59.606Z,21.98
2022-08-17T00:38:27.987Z,21.97
2022-08-17T00:40:59.520Z,21.96
2022-08-17T00:43:44.389Z,21.94
2022-08-17T00:46:17.647Z,21.93
2022-08-17T00:48:45.542Z,21.91
2022-08-17T00:51:41.012Z,21.86
2022-08-17T00:54:16.749Z,21.88
2022-08-17T00:56:48.973Z,21.87
2022-08-17T00:59:19.980Z,21.85
2022-08-17T01:01:49.000Z,21.86
2022-08-17T01:04:18.300Z,21.86
2022-08-17T01:06:47.055Z,21.84
2022-08-17T01:09:15.704Z,21.84
2022-08-17T01:11:44.024Z,21.83
2022-08-17T01:14:11.561Z,21.80
2022-08-17T01:16:39.295Z,21.78
2022-08-17T01:19:21.204Z,21.78
2022-08-17T01:22:03.261Z,21.74
2022-08-17T01:24:31.244Z,21.72
2022-08-17T01:27:01.253Z,21.72
2022-08-17T01:29:33.472Z,21.69
2022-08-17T01:32:03.792Z,21.68
2022-08-17T01:34:39.869Z,21.67
2022-08-17T01:37:12.192Z,21.66
2022-08-17T01:39:47.810Z,21.69
2022-08-17T01:42:23.555Z,21.73
2022-08-17T01:44:55.487Z,21.75
2022-08-17T01:47:23.207Z,21.78
2022-08-17T01:49:51.225Z,21.79
2022-08-17T01:52:18.669Z,21.79
2022-08-17T01:54:47.600Z,21.81
2022-08-17T01:57:14.753Z,21.78
2022-08-17T01:59:41.738Z,21.79
2022-08-17T02:02:08.891Z,21.78
2022-08-17T02:04:36.135Z,21.75
2022-08-17T02:07:03.124Z,21.72
2022-08-17T02:09:30.838Z,21.69
2022-08-17T02:12:38.358Z,21.67
2022-08-17T02:14:50.450Z,21.61
2022-08-17T02:17:17.836Z,21.58
2022-08-17T02:19:44.889Z,21.56
2022-08-17T02:22:12.275Z,21.55
2022-08-17T02:25:00.288Z,21.53
2022-08-17T02:27:27.040Z,21.50
2022-08-17T02:29:53.979Z,21.52
2022-08-17T02:32:28.511Z,21.51
2022-08-17T02:34:59.810Z,21.49
2022-08-17T02:37:28.384Z,21.49
2022-08-17T02:39:59.583Z,21.49
2022-08-17T02:42:31.574Z,21.49
2022-08-17T02:44:59.405Z,21.48
2022-08-17T02:47:27.006Z,21.48
2022-08-17T02:49:55.863Z,21.46
2022-08-17T02:52:43.745Z,21.49
2022-08-17T02:55:15.513Z,21.51
2022-08-17T02:57:42.745Z,21.53
2022-08-17T03:00:13.917Z,21.57
2022-08-17T03:02:43.469Z,21.60
2022-08-17T03:05:12.634Z,21.62
2022-08-17T03:07:39.756Z,21.67
2022-08-17T03:10:08.306Z,21.71
2022-08-17T03:12:38.844Z,21.77
2022-08-17T03:15:11.301Z,21.80
2022-08-17T03:17:38.523Z,21.85
2022-08-17T03:20:07.919Z,21.90
2022-08-17T03:22:41.457Z,21.96
2022-08-17T03:25:19.606Z,22.01
2022-08-17T03:27:50.309Z,22.00
2022-08-17T03:30:18.841Z,22.02
2022-08-17T03:32:50.538Z,22.01
2022-08-17T03:35:22.542Z,22.01
2022-08-17T03:37:51.445Z,21.99
2022-08-17T03:40:34.392Z,22.04
2022-08-17T03:43:16.384Z,22.06
2022-08-17T03:46:02.616Z,22.09
2022-08-17T03:48:48.342Z,22.08
2022-08-17T03:51:40.075Z,22.11
2022-08-17T03:54:27.045Z,22.17
2022-08-17T03:56:59.769Z,22.24
2022-08-17T03:59:26.770Z,22.27
2022-08-17T04:01:58.489Z,22.33
2022-08-17T04:04:27.609Z,22.37
2022-08-17T04:06:55.176Z,22.44
2022-08-17T04:09:22.310Z,22.51
2022-08-17T04:11:49.238Z,22.56
2022-08-17T04:14:16.310Z,22.59
2022-08-17T04:16:44.022Z,22.68
2022-08-17T04:19:11.121Z,22.71
2022-08-17T04:21:38.240Z,22.73
2022-08-17T04:24:05.700Z,22.76
2022-08-17T04:26:52.170Z,22.85
2022-08-17T04:29:20.393Z,22.94
2022-08-17T04:31:48.170Z,23.05
2022-08-17T04:34:15.959Z,23.15
2022-08-17T04:36:47.915Z,23.33
2022-08-17T04:39:17.690Z,23.34
2022-08-17T04:42:03.469Z,23.49
2022-08-17T04:44:37.867Z,23.65
2022-08-17T04:47:05.454Z,23.84
2022-08-17T04:49:32.724Z,24.76
2022-08-17T04:52:04.105Z,25.57
2022-08-17T04:54:31.727Z,26.65
2022-08-17T04:56:58.748Z,27.46
2022-08-17T04:59:25.726Z,28.08
2022-08-17T05:01:52.798Z,28.40
2022-08-17T05:04:33.601Z,29.12
2022-08-17T05:07:04.692Z,29.62
2022-08-17T05:09:31.929Z,30.23
2022-08-17T05:12:02.659Z,30.52
2022-08-17T05:14:32.880Z,31.03
2022-08-17T05:17:01.794Z,31.15
2022-08-17T05:19:33.998Z,30.92
2022-08-17T05:22:05.623Z,31.66
2022-08-17T05:24:42.478Z,31.62
2022-08-17T05:27:18.970Z,32.32
2022-08-17T05:29:46.301Z,32.47
2022-08-17T05:32:38.769Z,32.77
2022-08-17T05:35:01.908Z,32.97
2022-08-17T05:37:29.832Z,33.10
2022-08-17T05:39:56.896Z,31.61
2022-08-17T05:42:24.223Z,31.36
2022-08-17T05:44:51.276Z,30.91
2022-08-17T05:47:18.521Z,30.48
2022-08-17T05:49:48.862Z,30.16
2022-08-17T05:52:31.438Z,30.03
2022-08-17T05:55:16.567Z,29.48
2022-08-17T05:57:53.850Z,29.34
2022-08-17T06:00:32.054Z,29.92
2022-08-17T06:03:33.236Z,31.28
2022-08-17T06:06:32.067Z,32.37
2022-08-17T06:09:30.118Z,32.83
2022-08-17T06:12:19.941Z,32.52
2022-08-17T06:14:59.686Z,32.46
2022-08-17T06:17:28.572Z,31.98
2022-08-17T06:20:11.918Z,33.28
2022-08-17T06:22:46.360Z,34.29
2022-08-17T06:25:35.017Z,35.12
2022-08-17T06:28:14.814Z,35.62
2022-08-17T06:31:00.338Z,36.13
2022-08-17T06:33:35.353Z,37.17
2022-08-17T06:36:25.277Z,36.98
2022-08-17T06:39:02.662Z,38.09
2022-08-17T06:41:32.428Z,38.49
2022-08-17T06:44:04.058Z,38.60
2022-08-17T06:46:36.273Z,37.34
2022-08-17T06:49:14.311Z,36.80
2022-08-17T06:51:46.433Z,35.25
2022-08-17T06:54:25.450Z,34.82
2022-08-17T06:56:59.563Z,35.63
2022-08-17T06:59:54.513Z,35.87
2022-08-17T07:02:52.332Z,35.20
2022-08-17T07:05:38.816Z,35.62
2022-08-17T07:08:18.686Z,36.68
2022-08-17T07:10:55.419Z,38.12
2022-08-17T07:13:51.304Z,38.77
2022-08-17T07:16:35.987Z,39.31
2022-08-17T07:19:04.591Z,38.83
2022-08-17T07:21:41.045Z,40.04
2022-08-17T07:24:47.424Z,40.72
2022-08-17T07:27:31.108Z,40.49
2022-08-17T07:30:11.302Z,39.57
2022-08-17T07:33:00.874Z,40.33
2022-08-17T07:35:40.848Z,41.56
2022-08-17T07:38:25.603Z,42.02
2022-08-17T07:41:03.546Z,41.43
2022-08-17T07:43:39.896Z,41.86
2022-08-17T07:46:34.366Z,42.36
2022-08-17T07:49:03.262Z,42.69
2022-08-17T07:51:37.927Z,42.80
2022-08-17T07:54:29.975Z,43.16
2022-08-17T07:57:08.794Z,43.55
2022-08-17T07:59:38.424Z,43.59
2022-08-17T08:02:16.291Z,44.15
2022-08-17T08:05:10.117Z,44.56
2022-08-17T08:08:00.822Z,44.51
2022-08-17T08:10:35.660Z,44.36
2022-08-17T08:13:28.873Z,44.70
2022-08-17T08:16:26.203Z,44.54
2022-08-17T08:18:58.022Z,44.57
2022-08-17T08:21:51.440Z,45.01
2022-08-17T08:24:49.328Z,45.18
2022-08-17T08:27:27.592Z,45.54
2022-08-17T08:30:05.003Z,44.74
2022-08-17T08:32:50.412Z,44.55
2022-08-17T08:35:26.846Z,44.55
2022-08-17T08:38:09.009Z,45.26
2022-08-17T08:40:57.404Z,44.87
2022-08-17T08:43:27.558Z,45.77
2022-08-17T08:45:57.227Z,46.02
2022-08-17T08:48:55.794Z,45.93
2022-08-17T08:51:56.889Z,46.20
2022-08-17T08:54:42.024Z,46.75
2022-08-17T08:57:42.696Z,45.62
2022-08-17T09:00:23.085Z,44.46
2022-08-17T09:03:19.238Z,43.63
2022-08-17T09:06:28.740Z,43.80
2022-08-17T09:09:29.346Z,43.80
2022-08-17T09:12:11.374Z,44.73
2022-08-17T09:15:04.572Z,44.76
2022-08-17T09:18:14.604Z,45.30
2022-08-17T09:20:50.303Z,45.77
2022-08-17T09:23:59.588Z,46.23
2022-08-17T09:26:54.891Z,45.08
2022-08-17T09:29:27.219Z,44.31
2022-08-17T09:32:01.737Z,44.73
2022-08-17T09:34:50.814Z,45.08
2022-08-17T09:37:28.084Z,45.00
2022-08-17T09:40:10.296Z,44.87
2022-08-17T09:42:55.083Z,46.02
2022-08-17T09:45:27.962Z,46.46
2022-08-17T09:48:12.457Z,46.74
2022-08-17T09:51:05.530Z,46.53
2022-08-17T09:53:31.863Z,46.44
2022-08-17T09:56:06.992Z,45.40
2022-08-17T09:58:52.462Z,44.50
2022-08-17T10:01:38.243Z,46.12
2022-08-17T10:04:30.711Z,46.42
2022-08-17T10:07:16.329Z,46.68
2022-08-17T10:09:51.339Z,47.15
2022-08-17T10:12:30.451Z,46.67
2022-08-17T10:15:23.618Z,47.11
2022-08-17T10:18:13.435Z,47.55
2022-08-17T10:21:27.203Z,47.13
2022-08-17T10:24:38.965Z,45.27
2022-08-17T10:27:11.592Z,45.97
2022-08-17T10:29:55.380Z,45.39
2022-08-17T10:32:35.446Z,44.47
2022-08-17T10:35:18.845Z,44.95
2022-08-17T10:37:51.796Z,45.33
2022-08-17T10:40:40.596Z,45.58
2022-08-17T10:44:37.175Z,46.04
2022-08-17T10:46:52.386Z,46.18
2022-08-17T10:49:21.163Z,45.06
2022-08-17T10:51:53.021Z,44.51
2022-08-17T10:54:32.872Z,44.71
2022-08-17T10:57:00.039Z,44.93
2022-08-17T10:59:36.203Z,45.37
2022-08-17T11:02:12.464Z,45.76
2022-08-17T11:04:54.501Z,46.35
2022-08-17T11:08:13.208Z,44.36
2022-08-17T11:10:53.405Z,43.90
2022-08-17T11:13:41.661Z,43.11
2022-08-17T11:16:11.309Z,42.21
2022-08-17T11:19:37.004Z,43.39
2022-08-17T11:22:34.124Z,44.19
2022-08-17T11:25:17.837Z,44.34
2022-08-17T11:27:53.854Z,44.89
2022-08-17T11:30:43.616Z,45.31
2022-08-17T11:33:36.799Z,44.85
2022-08-17T11:36:31.492Z,42.65
2022-08-17T11:39:13.186Z,41.63
2022-08-17T11:41:44.392Z,42.28
2022-08-17T11:44:15.515Z,42.95
2022-08-17T11:47:31.988Z,43.19
2022-08-17T11:50:38.942Z,43.54
2022-08-17T11:53:06.552Z,43.36
2022-08-17T11:55:38.259Z,42.55
2022-08-17T11:58:29.575Z,41.62
2022-08-17T12:00:59.439Z,40.67
2022-08-17T12:03:33.391Z,40.20
2022-08-17T12:06:17.642Z,39.19
2022-08-17T12:09:00.529Z,38.96
2022-08-17T12:11:55.101Z,37.70
2022-08-17T12:15:06.004Z,37.48
2022-08-17T12:17:40.434Z,36.96
2022-08-17T12:21:26.373Z,36.37
2022-08-17T12:24:17.911Z,36.27
2022-08-17T12:26:56.526Z,36.05
2022-08-17T12:29:35.711Z,35.68
2022-08-17T12:32:07.232Z,35.37
2022-08-17T12:34:42.807Z,34.81
2022-08-17T12:37:20.906Z,34.71
2022-08-17T12:39:57.735Z,34.52
2022-08-17T12:42:29.435Z,34.34
2022-08-17T12:44:56.891Z,34.17
2022-08-17T12:47:24.697Z,33.71
2022-08-17T12:50:29.874Z,33.57
2022-08-17T12:53:01.636Z,33.20
2022-08-17T12:55:32.740Z,33.24
2022-08-17T12:58:02.258Z,33.26
2022-08-17T13:00:47.741Z,33.10
2022-08-17T13:03:21.930Z,32.87
2022-08-17T13:06:06.394Z,32.92
2022-08-17T13:08:45.982Z,32.84
2022-08-17T13:11:18.908Z,32.70
2022-08-17T13:13:52.579Z,32.70
2022-08-17T13:16:24.493Z,32.75
2022-08-17T13:19:06.078Z,32.68
2022-08-17T13:21:34.315Z,32.55
2022-08-17T13:24:19.729Z,32.54
2022-08-17T13:26:50.947Z,32.40
2022-08-17T13:29:25.997Z,32.31
2022-08-17T13:32:04.241Z,32.26
2022-08-17T13:35:11.849Z,32.16
2022-08-17T13:37:32.660Z,32.09
2022-08-17T13:40:21.516Z,32.10
2022-08-17T13:42:52.593Z,31.97
2022-08-17T13:45:36.444Z,31.83
2022-08-17T13:48:10.913Z,31.79
2022-08-17T13:50:41.264Z,31.68
2022-08-17T13:53:40.479Z,31.67
2022-08-17T13:56:37.104Z,31.52
2022-08-17T13:59:09.830Z,31.35
2022-08-17T14:01:53.423Z,31.19
2022-08-17T14:04:25.222Z,31.24
2022-08-17T14:07:09.772Z,31.18
2022-08-17T14:09:47.590Z,31.08
2022-08-17T14:12:17.681Z,31.03
2022-08-17T14:14:45.166Z,31.03
2022-08-17T14:17:12.843Z,30.88
2022-08-17T14:19:39.969Z,30.89
2022-08-17T14:22:11.678Z,30.89
2022-08-17T14:24:44.595Z,30.82
2022-08-17T14:27:12.198Z,30.73
2022-08-17T14:29:41.212Z,30.76
2022-08-17T14:32:24.372Z,30.68
2022-08-17T14:34:52.621Z,30.59
2022-08-17T14:37:21.163Z,30.53
2022-08-17T14:39:48.358Z,30.47
2022-08-17T14:42:15.623Z,30.44
2022-08-17T14:44:42.543Z,30.40
2022-08-17T14:47:15.933Z,30.39
2022-08-17T14:49:43.834Z,30.35
2022-08-17T14:52:19.491Z,30.30
2022-08-17T14:54:46.420Z,30.28
2022-08-17T14:57:24.612Z,30.51
2022-08-17T15:00:00.353Z,30.49
2022-08-17T15:02:29.359Z,30.43
2022-08-17T15:05:05.472Z,30.36
2022-08-17T15:07:32.624Z,30.26
2022-08-17T15:10:02.565Z,30.16
2022-08-17T15:12:33.742Z,30.09
2022-08-17T15:15:04.491Z,29.98
2022-08-17T15:17:44.929Z,29.88
2022-08-17T15:20:16.588Z,29.81
2022-08-17T15:22:45.141Z,29.74
2022-08-17T15:25:14.270Z,29.70
2022-08-17T15:27:41.739Z,29.62
2022-08-17T15:30:10.146Z,29.58
2022-08-17T15:32:40.662Z,29.53
2022-08-17T15:35:11.855Z,29.44
2022-08-17T15:37:40.465Z,29.35
2022-08-17T15:40:09.456Z,29.30
2022-08-17T15:42:40.485Z,29.25
2022-08-17T15:45:13.876Z,29.16
2022-08-17T15:47:41.127Z,29.09
2022-08-17T15:50:09.708Z,28.96
2022-08-17T15:52:40.247Z,28.91
2022-08-17T15:55:12.103Z,28.88
2022-08-17T15:57:39.442Z,28.80
2022-08-17T16:00:09.406Z,28.76
2022-08-17T16:03:44.794Z,28.73
2022-08-17T16:05:30.119Z,28.67
2022-08-17T16:07:58.732Z,28.62
2022-08-17T16:10:35.582Z,28.57
2022-08-17T16:13:04.457Z,28.46
2022-08-17T16:15:31.896Z,28.39
2022-08-17T16:17:59.795Z,28.36
2022-08-17T16:20:27.530Z,28.34
2022-08-17T16:22:55.245Z,28.27
2022-08-17T16:25:52.440Z,28.25
2022-08-17T16:28:16.847Z,28.19
2022-08-17T16:30:44.444Z,28.10
2022-08-17T16:33:12.823Z,28.05
2022-08-17T16:35:42.019Z,28.01
2022-08-17T16:38:09.671Z,27.99
2022-08-17T16:40:38.173Z,27.95
2022-08-17T16:43:10.688Z,27.92
2022-08-17T16:45:40.518Z,27.89
2022-08-17T16:48:09.497Z,27.82
2022-08-17T16:50:37.415Z,27.75
2022-08-17T16:53:10.810Z,27.67
2022-08-17T16:55:38.537Z,27.61
2022-08-17T16:58:06.830Z,27.60
2022-08-17T17:00:36.279Z,27.58
2022-08-17T17:03:19.490Z,27.51
2022-08-17T17:06:29.452Z,27.51
2022-08-17T17:09:00.957Z,27.46
2022-08-17T17:11:38.100Z,27.41
2022-08-17T17:14:34.442Z,27.36
2022-08-17T17:17:06.690Z,27.30
2022-08-17T17:19:42.951Z,27.27
2022-08-17T17:22:48.779Z,27.22
2022-08-17T17:25:29.702Z,27.17
2022-08-17T17:28:08.042Z,27.11
2022-08-17T17:31:10.245Z,27.03
2022-08-17T17:33:48.247Z,27.00
2022-08-17T17:36:24.276Z,26.96
2022-08-17T17:39:23.430Z,26.93
2022-08-17T17:41:57.483Z,26.90
2022-08-17T17:44:38.347Z,26.84
2022-08-17T17:47:05.846Z,26.80
2022-08-17T17:49:45.078Z,26.77
2022-08-17T17:52:37.926Z,26.69
2022-08-17T17:55:30.260Z,26.56
2022-08-17T17:58:09.451Z,26.53
2022-08-17T18:00:47.024Z,26.51
2022-08-17T18:04:03.164Z,26.49
2022-08-17T18:06:45.583Z,26.44
2022-08-17T18:09:54.042Z,26.43
2022-08-17T18:12:48.891Z,26.39
2022-08-17T18:15:35.704Z,26.31
2022-08-17T18:18:14.805Z,26.31
2022-08-17T18:20:53.441Z,26.27
2022-08-17T18:23:28.131Z,26.26
2022-08-17T18:25:57.199Z,26.25
2022-08-17T18:28:36.703Z,26.22
2022-08-17T18:31:03.664Z,26.22
2022-08-17T18:33:30.698Z,26.21
2022-08-17T18:35:58.908Z,26.23
2022-08-17T18:38:33.978Z,26.14
2022-08-17T18:41:19.638Z,26.22
2022-08-17T18:44:06.137Z,26.17
2022-08-17T18:46:37.725Z,26.14
2022-08-17T18:49:26.324Z,26.07
2022-08-17T18:52:21.523Z,26.04
2022-08-17T18:55:24.541Z,25.97
2022-08-17T18:57:56.945Z,25.94
2022-08-17T19:00:26.670Z,25.92
2022-08-17T19:03:15.445Z,25.89
2022-08-17T19:05:46.206Z,25.82
2022-08-17T19:08:23.141Z,25.79
2022-08-17T19:10:56.185Z,25.79
2022-08-17T19:13:38.543Z,25.75
2022-08-17T19:16:19.109Z,25.70
2022-08-17T19:18:56.289Z,25.67
2022-08-17T19:21:30.729Z,25.66
2022-08-17T19:24:06.443Z,25.63
2022-08-17T19:26:54.452Z,25.55
2022-08-17T19:29:41.339Z,25.48
2022-08-17T19:32:10.677Z,25.41
2022-08-17T19:34:39.307Z,25.40
2022-08-17T19:37:29.983Z,25.36
2022-08-17T19:40:51.570Z,25.32
2022-08-17T19:43:38.988Z,25.25
2022-08-17T19:46:26.203Z,25.23
2022-08-17T19:49:03.342Z,25.19
2022-08-17T19:52:10.226Z,25.16
2022-08-17T19:54:45.052Z,25.11
2022-08-17T19:57:12.003Z,25.07
2022-08-17T19:59:49.078Z,25.05
2022-08-17T20:02:42.316Z,25.00
2022-08-17T20:05:15.204Z,24.97
2022-08-17T20:08:00.957Z,24.95
2022-08-17T20:10:54.776Z,24.93
2022-08-17T20:13:49.805Z,24.86
2022-08-17T20:16:18.328Z,24.83
2022-08-17T20:19:07.267Z,24.79
2022-08-17T20:21:34.129Z,24.75
2022-08-17T20:24:20.346Z,24.71
2022-08-17T20:27:09.788Z,24.67
2022-08-17T20:29:55.307Z,24.63
2022-08-17T20:32:35.655Z,24.59
2022-08-17T20:35:09.793Z,24.55
2022-08-17T20:37:43.254Z,24.54
2022-08-17T20:40:10.207Z,24.53
2022-08-17T20:42:37.706Z,24.51
2022-08-17T20:45:26.275Z,24.50
2022-08-17T20:48:30.563Z,24.46
2022-08-17T20:50:56.279Z,24.41
2022-08-17T20:53:45.128Z,24.36
2022-08-17T20:56:44.156Z,24.33
2022-08-17T20:59:27.625Z,24.28
2022-08-17T21:02:17.698Z,24.24
2022-08-17T21:04:48.726Z,24.19
2022-08-17T21:07:42.621Z,24.18
2022-08-17T21:10:14.043Z,24.15
2022-08-17T21:13:02.719Z,24.14
2022-08-17T21:15:56.946Z,24.09
2022-08-17T21:18:52.836Z,24.06
2022-08-17T21:21:59.178Z,24.01
2022-08-17T21:25:00.211Z,23.98
2022-08-17T21:27:42.350Z,23.93
2022-08-17T21:30:10.225Z,23.90
2022-08-17T21:32:42.045Z,23.84
2022-08-17T21:35:12.496Z,23.87
2022-08-17T21:37:44.658Z,23.84
2022-08-17T21:40:11.610Z,23.80
2022-08-17T21:42:46.762Z,23.78
2022-08-17T21:45:27.371Z,23.73
2022-08-17T21:48:17.368Z,23.67
2022-08-17T21:50:57.340Z,23.66
2022-08-17T21:53:32.863Z,23.63
2022-08-17T21:56:00.886Z,23.59
2022-08-17T21:58:32.082Z,23.57
2022-08-17T22:01:23.959Z,23.52
2022-08-17T22:04:04.104Z,23.47
2022-08-17T22:06:34.299Z,23.45
2022-08-17T22:09:09.407Z,23.42
2022-08-17T22:11:56.308Z,23.39
2022-08-17T22:14:27.316Z,23.34
2022-08-17T22:17:41.509Z,23.29
2022-08-17T22:20:14.573Z,23.26
2022-08-17T22:23:21.830Z,23.24
2022-08-17T22:26:09.588Z,23.19
2022-08-17T22:28:47.006Z,23.18
2022-08-17T22:31:29.372Z,23.16
2022-08-17T22:34:02.235Z,23.14
2022-08-17T22:36:41.323Z,23.12
2022-08-17T22:39:11.057Z,23.02
2022-08-17T22:41:54.028Z,23.05
2022-08-17T22:44:37.837Z,23.04
2022-08-17T22:47:24.156Z,23.03
2022-08-17T22:50:03.840Z,22.99
2022-08-17T22:53:00.490Z,22.92
2022-08-17T22:55:51.128Z,22.90
2022-08-17T22:58:40.612Z,22.85
2022-08-17T23:01:26.348Z,22.81
2022-08-17T23:04:01.524Z,22.76
2022-08-17T23:06:29.941Z,22.74
2022-08-17T23:08:58.136Z,22.73
2022-08-17T23:11:36.764Z,22.71
2022-08-17T23:14:19.270Z,22.67
2022-08-17T23:16:47.420Z,22.66
2022-08-17T23:19:19.030Z,22.63
2022-08-17T23:21:46.896Z,22.62
2022-08-17T23:24:26.095Z,22.59
2022-08-17T23:26:57.161Z,22.57
2022-08-17T23:29:25.717Z,22.56
2022-08-17T23:31:52.923Z,22.53
2022-08-17T23:34:19.956Z,22.51
2022-08-17T23:36:52.622Z,22.51
2022-08-17T23:39:24.365Z,22.49
2022-08-17T23:41:53.610Z,22.46
2022-08-17T23:44:24.171Z,22.41
2022-08-17T23:46:51.905Z,22.38
2022-08-17T23:49:19.369Z,22.38
2022-08-17T23:51:49.005Z,22.35
2022-08-17T23:54:20.521Z,22.31
2022-08-17T23:56:47.712Z,22.35
2022-08-17T23:59:20.658Z,22.31
